createdAt,value
2023-09-22T00:00:12.269Z,26.80
2023-09-22T00:02:41.489Z,26.80
2023-09-22T00:05:11.241Z,26.80
2023-09-22T00:07:39.360Z,26.80
2023-09-22T00:10:08.712Z,26.80
2023-09-22T00:12:36.982Z,26.80
2023-09-22T00:15:05.848Z,26.80
2023-09-22T00:17:35.140Z,26.80
2023-09-22T00:20:03.388Z,26.80
2023-09-22T00:22:32.731Z,26.80
2023-09-22T00:25:00.512Z,26.80
2023-09-22T00:27:28.429Z,26.80
2023-09-22T00:29:56.229Z,26.80
2023-09-22T00:32:24.376Z,26.80
2023-09-22T00:34:52.503Z,26.80
2023-09-22T00:37:20.407Z,26.80
2023-09-22T00:39:49.581Z,26.80
2023-09-22T00:42:18.401Z,26.80
2023-09-22T00:44:46.427Z,26.80
2023-09-22T00:47:15.521Z,26.80
2023-09-22T00:49:44.843Z,26.80
2023-09-22T00:52:13.726Z,26.80
2023-09-22T00:54:42.530Z,26.80
2023-09-22T00:57:12.493Z,26.80
2023-09-22T00:59:41.195Z,26.80
2023-09-22T01:02:09.107Z,26.80
2023-09-22T01:04:37.119Z,26.80
2023-09-22T01:07:05.023Z,26.80
2023-09-22T01:09:32.840Z,26.80
2023-09-22T01:12:00.834Z,26.80
2023-09-22T01:14:29.944Z,26.80
2023-09-22T01:16:57.764Z,26.80
2023-09-22T01:19:26.218Z,26.80
2023-09-22T01:21:58.179Z,26.80
2023-09-22T01:24:27.409Z,26.80
2023-09-22T01:26:55.234Z,26.80
2023-09-22T01:29:23.044Z,26.80
2023-09-22T01:31:50.902Z,26.70
2023-09-22T01:34:18.674Z,26.80
2023-09-22T01:36:49.005Z,26.80
2023-09-22T01:39:18.665Z,26.80
2023-09-22T01:41:46.603Z,26.80
2023-09-22T01:44:14.355Z,26.80
2023-09-22T01:46:42.161Z,26.80
2023-09-22T01:49:11.062Z,26.80
2023-09-22T01:51:40.056Z,26.80
2023-09-22T01:54:08.052Z,26.80
2023-09-22T01:56:37.162Z,26.80
2023-09-22T01:59:05.232Z,26.80
2023-09-22T02:01:33.048Z,26.80
2023-09-22T02:04:01.003Z,26.80
2023-09-22T02:06:29.839Z,26.80
2023-09-22T02:08:58.321Z,26.70
2023-09-22T02:11:26.104Z,26.70
2023-09-22T02:13:55.386Z,26.80
2023-09-22T02:16:23.336Z,26.80
2023-09-22T02:18:51.877Z,26.80
2023-09-22T02:21:20.019Z,26.80
2023-09-22T02:23:47.840Z,26.80
2023-09-22T02:26:15.882Z,26.70
2023-09-22T02:28:44.109Z,26.70
2023-09-22T02:31:14.020Z,26.70
2023-09-22T02:33:41.867Z,26.70
2023-09-22T02:36:09.701Z,26.70
2023-09-22T02:38:37.618Z,26.70
2023-09-22T02:41:05.366Z,26.70
2023-09-22T02:43:33.231Z,26.70
2023-09-22T02:46:04.751Z,26.70
2023-09-22T02:48:34.084Z,26.70
2023-09-22T02:51:01.910Z,26.70
2023-09-22T02:53:29.800Z,26.70
2023-09-22T02:55:59.617Z,26.70
2023-09-22T02:58:27.389Z,26.70
2023-09-22T03:00:55.199Z,26.70
2023-09-22T03:03:23.111Z,26.70
2023-09-22T03:05:52.381Z,26.70
2023-09-22T03:08:20.408Z,26.70
2023-09-22T03:10:49.064Z,26.70
2023-09-22T03:13:16.835Z,26.70
2023-09-22T03:15:44.877Z,26.70
2023-09-22T03:18:12.706Z,26.70
2023-09-22T03:20:40.511Z,26.70
2023-09-22T03:23:09.625Z,26.70
2023-09-22T03:25:37.426Z,26.70
2023-09-22T03:28:06.195Z,26.70
2023-09-22T03:30:34.215Z,26.70
2023-09-22T03:33:02.100Z,26.70
2023-09-22T03:35:30.580Z,26.70
2023-09-22T03:37:59.251Z,26.70
2023-09-22T03:40:33.871Z,26.70
2023-09-22T03:43:02.306Z,26.70
2023-09-22T03:45:31.016Z,26.70
2023-09-22T03:47:58.954Z,26.70
2023-09-22T03:50:26.902Z,26.70
2023-09-22T03:52:54.726Z,26.70
2023-09-22T03:55:22.740Z,26.70
2023-09-22T03:57:52.041Z,26.70
2023-09-22T04:00:25.822Z,26.70
2023-09-22T04:02:54.125Z,26.70
2023-09-22T04:05:22.034Z,26.70
2023-09-22T04:07:49.923Z,26.70
2023-09-22T04:10:18.020Z,26.70
2023-09-22T04:12:46.638Z,26.70
2023-09-22T04:15:16.664Z,26.70
2023-09-22T04:17:46.513Z,26.70
2023-09-22T04:20:18.582Z,26.70
2023-09-22T04:22:46.521Z,26.70
2023-09-22T04:25:20.121Z,26.70
2023-09-22T04:27:55.110Z,26.70
2023-09-22T04:30:25.698Z,26.70
2023-09-22T04:32:54.384Z,26.70
2023-09-22T04:35:22.853Z,26.70
2023-09-22T04:37:51.796Z,26.70
2023-09-22T04:40:25.858Z,26.60
2023-09-22T04:42:54.491Z,26.70
2023-09-22T04:45:24.500Z,26.60
2023-09-22T04:47:53.591Z,26.60
2023-09-22T04:50:22.304Z,26.70
2023-09-22T04:52:51.339Z,26.70
2023-09-22T04:55:20.888Z,26.70
2023-09-22T04:57:49.441Z,26.70
2023-09-22T05:00:17.895Z,26.70
2023-09-22T05:02:47.473Z,26.70
2023-09-22T05:05:17.736Z,26.70
2023-09-22T05:07:45.576Z,26.60
2023-09-22T05:10:13.522Z,26.70
2023-09-22T05:12:41.444Z,26.60
2023-09-22T05:15:10.609Z,26.70
2023-09-22T05:17:38.466Z,26.70
2023-09-22T05:20:12.885Z,26.60
2023-09-22T05:22:40.901Z,26.70
2023-09-22T05:25:10.874Z,26.70
2023-09-22T05:27:38.667Z,26.70
2023-09-22T05:30:07.923Z,26.70
2023-09-22T05:32:36.099Z,26.70
2023-09-22T05:35:05.678Z,26.70
2023-09-22T05:37:35.672Z,26.70
2023-09-22T05:40:07.309Z,26.70
2023-09-22T05:42:35.101Z,26.70
2023-09-22T05:45:03.392Z,26.70
2023-09-22T05:47:31.301Z,26.80
2023-09-22T05:49:59.325Z,26.70
2023-09-22T05:52:27.069Z,26.70
2023-09-22T05:54:56.277Z,26.70
2023-09-22T05:57:25.256Z,26.70
2023-09-22T05:59:53.029Z,26.70
2023-09-22T06:02:21.190Z,26.70
2023-09-22T06:04:49.472Z,26.70
2023-09-22T06:07:17.309Z,26.70
2023-09-22T06:09:46.934Z,26.70
2023-09-22T06:12:16.106Z,26.70
2023-09-22T06:14:44.722Z,26.70
2023-09-22T06:17:12.548Z,26.70
2023-09-22T06:19:40.896Z,26.70
2023-09-22T06:22:11.708Z,26.70
2023-09-22T06:24:39.492Z,26.70
2023-09-22T06:27:08.176Z,26.60
2023-09-22T06:29:38.138Z,26.60
2023-09-22T06:32:06.890Z,26.70
2023-09-22T06:34:34.893Z,26.60
2023-09-22T06:37:02.650Z,26.70
2023-09-22T06:39:30.457Z,26.70
2023-09-22T06:41:58.285Z,26.70
2023-09-22T06:44:28.616Z,26.70
2023-09-22T06:46:57.962Z,26.70
2023-09-22T06:49:25.787Z,26.70
2023-09-22T06:51:53.777Z,26.70
2023-09-22T06:54:21.778Z,26.70
2023-09-22T06:56:51.179Z,26.60
2023-09-22T06:59:19.456Z,26.70
2023-09-22T07:01:47.369Z,26.70
2023-09-22T07:04:17.544Z,26.70
2023-09-22T07:06:45.438Z,26.60
2023-09-22T07:09:13.721Z,26.70
2023-09-22T07:11:42.092Z,26.70
2023-09-22T07:14:10.074Z,26.70
2023-09-22T07:16:38.238Z,26.70
2023-09-22T07:19:06.700Z,26.70
2023-09-22T07:21:36.536Z,26.70
2023-09-22T07:24:05.120Z,26.70
2023-09-22T07:26:33.019Z,26.70
2023-09-22T07:29:00.798Z,26.70
2023-09-22T07:31:31.744Z,26.70
2023-09-22T07:34:00.287Z,26.70
2023-09-22T07:36:28.257Z,26.70
2023-09-22T07:38:57.356Z,26.70
2023-09-22T07:41:25.201Z,26.70
2023-09-22T07:43:53.786Z,26.70
2023-09-22T07:46:23.921Z,26.70
2023-09-22T07:48:52.422Z,26.70
2023-09-22T07:51:21.153Z,26.70
2023-09-22T07:53:48.993Z,26.70
2023-09-22T07:56:19.595Z,26.70
2023-09-22T07:58:58.433Z,26.70
2023-09-22T08:01:30.872Z,26.70
2023-09-22T08:03:58.858Z,26.70
2023-09-22T08:06:28.148Z,26.80
2023-09-22T08:08:55.930Z,26.70
2023-09-22T08:11:25.039Z,26.80
2023-09-22T08:13:52.812Z,26.80
2023-09-22T08:16:21.499Z,26.70
2023-09-22T08:18:49.554Z,26.70
2023-09-22T08:21:17.522Z,26.80
2023-09-22T08:23:50.179Z,26.80
2023-09-22T08:26:19.451Z,26.80
2023-09-22T08:28:49.382Z,26.80
2023-09-22T08:31:17.164Z,26.80
2023-09-22T08:33:45.355Z,26.80
2023-09-22T08:36:13.605Z,26.80
2023-09-22T08:38:41.474Z,26.80
2023-09-22T08:41:09.375Z,26.80
2023-09-22T08:43:37.492Z,26.80
2023-09-22T08:46:06.999Z,26.80
2023-09-22T08:48:35.926Z,26.80
2023-09-22T08:51:05.324Z,26.80
2023-09-22T08:53:33.622Z,26.80
2023-09-22T08:56:02.928Z,26.80
2023-09-22T08:58:30.746Z,26.80
2023-09-22T09:00:58.672Z,26.80
2023-09-22T09:03:28.967Z,26.80
2023-09-22T09:06:07.689Z,26.80
2023-09-22T09:08:36.432Z,26.80
2023-09-22T09:11:09.019Z,26.80
2023-09-22T09:13:37.219Z,26.80
2023-09-22T09:16:07.928Z,26.90
2023-09-22T09:18:37.871Z,26.90
2023-09-22T09:21:11.467Z,26.90
2023-09-22T09:23:39.978Z,26.90
2023-09-22T09:26:07.884Z,26.90
2023-09-22T09:28:41.724Z,26.90
2023-09-22T09:31:11.615Z,26.90
2023-09-22T09:33:52.270Z,26.90
2023-09-22T09:36:20.087Z,26.90
2023-09-22T09:38:48.016Z,26.90
2023-09-22T09:41:19.790Z,26.90
2023-09-22T09:43:49.088Z,26.90
2023-09-22T09:46:18.895Z,26.90
2023-09-22T09:48:49.012Z,26.90
2023-09-22T09:51:21.355Z,26.80
2023-09-22T09:53:53.792Z,26.80
2023-09-22T09:56:22.133Z,26.80
2023-09-22T09:58:51.265Z,26.80
2023-09-22T10:01:20.417Z,26.70
2023-09-22T10:03:52.779Z,26.60
2023-09-22T10:06:22.622Z,26.60
2023-09-22T10:08:50.406Z,26.50
2023-09-22T10:11:18.555Z,26.60
2023-09-22T10:13:46.495Z,26.60
2023-09-22T10:16:29.429Z,26.60
2023-09-22T10:19:00.487Z,26.60
2023-09-22T10:21:46.396Z,26.50
2023-09-22T10:24:24.591Z,26.50
2023-09-22T10:27:12.633Z,26.50
2023-09-22T10:29:42.447Z,26.40
2023-09-22T10:32:35.122Z,26.40
2023-09-22T10:35:06.300Z,26.40
2023-09-22T10:37:34.879Z,26.40
2023-09-22T10:40:10.074Z,26.30
2023-09-22T10:42:42.878Z,26.30
2023-09-22T10:45:11.628Z,26.30
2023-09-22T10:47:41.322Z,26.30
2023-09-22T10:50:19.783Z,26.30
2023-09-22T10:52:55.320Z,26.30
2023-09-22T10:55:32.862Z,26.30
2023-09-22T10:58:01.481Z,26.20
2023-09-22T11:00:29.256Z,26.20
2023-09-22T11:03:05.947Z,26.20
2023-09-22T11:05:36.027Z,26.20
2023-09-22T11:08:13.336Z,26.20
2023-09-22T11:10:42.999Z,26.10
2023-09-22T11:13:11.001Z,26.10
2023-09-22T11:15:48.343Z,26.10
2023-09-22T11:18:21.472Z,26.10
2023-09-22T11:20:51.344Z,26.10
2023-09-22T11:23:19.425Z,26.10
2023-09-22T11:25:58.456Z,26.10
2023-09-22T11:28:27.948Z,26.10
2023-09-22T11:30:56.003Z,26.00
2023-09-22T11:33:24.455Z,26.00
2023-09-22T11:35:55.714Z,26.00
2023-09-22T11:38:26.078Z,26.00
2023-09-22T11:41:01.787Z,26.00
2023-09-22T11:43:30.170Z,26.00
2023-09-22T11:46:09.933Z,26.00
2023-09-22T11:49:00.602Z,26.00
2023-09-22T11:51:48.476Z,26.00
2023-09-22T11:54:18.856Z,26.00
2023-09-22T11:56:47.391Z,26.00
2023-09-22T11:59:16.182Z,26.00
2023-09-22T12:01:44.500Z,26.00
2023-09-22T12:04:12.661Z,26.00
2023-09-22T12:06:41.853Z,26.00
2023-09-22T12:09:11.605Z,26.00
2023-09-22T12:11:40.627Z,26.00
2023-09-22T12:14:08.792Z,26.00
2023-09-22T12:16:36.775Z,26.00
2023-09-22T12:19:05.431Z,26.00
2023-09-22T12:21:34.165Z,26.00
2023-09-22T12:24:02.006Z,26.10
2023-09-22T12:26:31.895Z,26.10
2023-09-22T12:29:01.727Z,26.10
2023-09-22T12:31:30.871Z,26.20
2023-09-22T12:33:59.783Z,26.30
2023-09-22T12:36:27.562Z,26.30
2023-09-22T12:38:56.085Z,26.30
2023-09-22T12:41:23.840Z,26.40
2023-09-22T12:43:52.986Z,26.40
2023-09-22T12:46:20.834Z,26.40
2023-09-22T12:48:48.643Z,26.50
2023-09-22T12:51:16.415Z,26.40
2023-09-22T12:53:44.419Z,26.50
2023-09-22T12:56:13.270Z,26.50
2023-09-22T12:58:41.036Z,26.50
2023-09-22T13:01:13.624Z,26.50
2023-09-22T13:03:41.785Z,26.60
2023-09-22T13:06:09.659Z,26.60
2023-09-22T13:08:38.425Z,26.60
2023-09-22T13:11:06.369Z,26.60
2023-09-22T13:13:34.336Z,26.70
2023-09-22T13:16:03.311Z,26.70
2023-09-22T13:18:32.521Z,26.70
2023-09-22T13:21:00.644Z,26.70
2023-09-22T13:23:29.068Z,26.70
2023-09-22T13:25:58.321Z,26.70
2023-09-22T13:28:26.166Z,26.70
2023-09-22T13:30:55.560Z,26.70
2023-09-22T13:33:27.072Z,26.70
2023-09-22T13:35:56.612Z,26.70
2023-09-22T13:38:24.935Z,26.70
2023-09-22T13:40:53.570Z,26.70
2023-09-22T13:43:23.540Z,26.70
2023-09-22T13:45:51.465Z,26.70
2023-09-22T13:48:19.251Z,26.70
2023-09-22T13:50:53.115Z,26.70
2023-09-22T13:53:22.225Z,26.70
2023-09-22T13:55:50.396Z,26.70
2023-09-22T13:58:18.239Z,26.70
2023-09-22T14:00:46.561Z,26.70
2023-09-22T14:03:15.298Z,26.70
2023-09-22T14:05:43.574Z,26.70
2023-09-22T14:08:11.674Z,26.70
2023-09-22T14:10:40.937Z,26.70
2023-09-22T14:13:09.459Z,26.70
2023-09-22T14:15:37.249Z,26.70
2023-09-22T14:18:05.751Z,26.70
2023-09-22T14:20:33.705Z,26.70
2023-09-22T14:23:02.270Z,26.70
2023-09-22T14:25:31.597Z,26.70
2023-09-22T14:28:00.773Z,26.70
2023-09-22T14:30:28.681Z,26.70
2023-09-22T14:32:57.583Z,26.70
2023-09-22T14:35:26.766Z,26.70
2023-09-22T14:37:54.656Z,26.70
2023-09-22T14:40:22.534Z,26.70
2023-09-22T14:42:50.856Z,26.70
2023-09-22T14:45:20.253Z,26.70
2023-09-22T14:47:48.547Z,26.70
2023-09-22T14:50:19.646Z,26.80
2023-09-22T14:52:47.972Z,26.80
2023-09-22T14:55:15.842Z,26.80
2023-09-22T14:57:43.602Z,26.70
2023-09-22T15:00:13.841Z,26.80
2023-09-22T15:02:43.154Z,26.80
2023-09-22T15:05:11.343Z,26.80
2023-09-22T15:07:39.905Z,26.80
2023-09-22T15:10:09.405Z,26.80
2023-09-22T15:12:37.214Z,26.80
2023-09-22T15:15:06.404Z,26.80
2023-09-22T15:17:34.987Z,26.80
2023-09-22T15:20:04.333Z,26.80
2023-09-22T15:22:33.270Z,26.80
2023-09-22T15:25:01.053Z,26.80
2023-09-22T15:27:29.056Z,26.80
2023-09-22T15:29:56.858Z,26.80
2023-09-22T15:32:24.773Z,26.80
2023-09-22T15:34:53.009Z,26.80
2023-09-22T15:37:22.088Z,26.80
2023-09-22T15:39:49.833Z,26.80
2023-09-22T15:42:17.609Z,26.80
2023-09-22T15:44:45.392Z,26.70
2023-09-22T15:47:14.408Z,26.80
2023-09-22T15:49:42.389Z,26.70
2023-09-22T15:52:10.435Z,26.70
2023-09-22T15:54:39.520Z,26.70
2023-09-22T15:57:07.272Z,26.70
2023-09-22T15:59:35.021Z,26.70
2023-09-22T16:02:02.875Z,26.70
2023-09-22T16:04:31.953Z,26.70
2023-09-22T16:06:59.789Z,26.70
2023-09-22T16:09:28.454Z,26.70
2023-09-22T16:11:57.540Z,26.70
2023-09-22T16:14:25.836Z,26.70
2023-09-22T16:16:53.697Z,26.70
2023-09-22T16:19:22.892Z,26.70
2023-09-22T16:21:50.705Z,26.70
2023-09-22T16:24:18.540Z,26.70
2023-09-22T16:26:47.690Z,26.70
2023-09-22T16:29:17.270Z,26.70
2023-09-22T16:31:45.266Z,26.70
2023-09-22T16:34:13.007Z,26.70
2023-09-22T16:36:40.776Z,26.70
2023-09-22T16:39:08.559Z,26.70
2023-09-22T16:41:36.319Z,26.70
2023-09-22T16:44:04.475Z,26.70
2023-09-22T16:46:34.138Z,26.70
2023-09-22T16:49:02.027Z,26.70
2023-09-22T16:51:29.797Z,26.60
2023-09-22T16:53:57.569Z,26.60
2023-09-22T16:56:25.656Z,26.70
2023-09-22T16:58:53.460Z,26.60
2023-09-22T17:01:21.679Z,26.60
2023-09-22T17:03:50.797Z,26.60
2023-09-22T17:06:18.760Z,26.60
2023-09-22T17:08:46.800Z,26.60
2023-09-22T17:11:14.801Z,26.60
2023-09-22T17:13:42.558Z,26.70
2023-09-22T17:16:10.395Z,26.70
2023-09-22T17:18:38.315Z,26.70
2023-09-22T17:21:20.687Z,26.70
2023-09-22T17:23:55.264Z,26.80
2023-09-22T17:26:23.605Z,26.80
2023-09-22T17:28:51.480Z,26.80
2023-09-22T17:31:19.823Z,26.90
2023-09-22T17:33:47.593Z,27.00
2023-09-22T17:36:16.877Z,27.10
2023-09-22T17:38:45.116Z,27.10
2023-09-22T17:41:15.149Z,27.20
2023-09-22T17:43:43.135Z,27.20
2023-09-22T17:46:11.086Z,27.20
2023-09-22T17:48:39.026Z,27.20
2023-09-22T17:51:08.471Z,27.10
2023-09-22T17:53:37.663Z,27.10
2023-09-22T17:56:06.126Z,27.10
2023-09-22T17:58:34.494Z,27.00
2023-09-22T18:01:02.310Z,27.00
2023-09-22T18:03:30.122Z,27.00
2023-09-22T18:06:00.316Z,27.00
2023-09-22T18:08:28.553Z,26.90
2023-09-22T18:10:58.647Z,26.90
2023-09-22T18:13:26.546Z,26.90
2023-09-22T18:15:55.177Z,26.90
2023-09-22T18:18:23.919Z,26.90
2023-09-22T18:20:54.106Z,26.90
2023-09-22T18:23:22.077Z,26.90
2023-09-22T18:25:59.130Z,26.90
2023-09-22T18:28:27.724Z,26.90
2023-09-22T18:30:56.441Z,26.80
2023-09-22T18:33:24.330Z,26.80
2023-09-22T18:35:55.420Z,26.80
2023-09-22T18:38:23.364Z,26.80
2023-09-22T18:40:51.518Z,26.80
2023-09-22T18:43:20.809Z,26.80
2023-09-22T18:45:49.341Z,26.80
2023-09-22T18:48:17.480Z,26.80
2023-09-22T18:50:49.162Z,26.80
2023-09-22T18:53:17.297Z,26.80
2023-09-22T18:55:48.940Z,26.80
2023-09-22T18:58:20.771Z,26.80
2023-09-22T19:00:49.463Z,26.80
2023-09-22T19:03:19.846Z,26.80
2023-09-22T19:05:49.980Z,26.80
2023-09-22T19:08:17.898Z,26.70
2023-09-22T19:10:48.781Z,26.70
2023-09-22T19:13:16.621Z,26.70
2023-09-22T19:15:45.827Z,26.70
2023-09-22T19:18:13.852Z,26.70
2023-09-22T19:20:41.688Z,26.70
2023-09-22T19:23:10.557Z,26.80
2023-09-22T19:25:40.547Z,26.70
2023-09-22T19:28:10.581Z,26.70
2023-09-22T19:30:40.901Z,26.70
2023-09-22T19:33:11.855Z,26.70
2023-09-22T19:35:42.821Z,26.70
2023-09-22T19:38:10.650Z,26.70
2023-09-22T19:40:39.460Z,26.70
2023-09-22T19:43:07.802Z,26.70
2023-09-22T19:45:36.438Z,26.70
2023-09-22T19:48:05.601Z,26.70
2023-09-22T19:50:35.947Z,26.70
2023-09-22T19:53:05.554Z,26.70
2023-09-22T19:55:33.584Z,26.60
2023-09-22T19:58:01.741Z,26.60
2023-09-22T20:00:29.634Z,26.60
2023-09-22T20:02:57.768Z,26.70
2023-09-22T20:05:26.257Z,26.60
2023-09-22T20:07:55.364Z,26.60
2023-09-22T20:10:24.176Z,26.60
2023-09-22T20:12:52.492Z,26.60
2023-09-22T20:15:20.845Z,26.60
2023-09-22T20:17:48.717Z,26.60
2023-09-22T20:20:16.718Z,26.60
2023-09-22T20:22:45.719Z,26.60
2023-09-22T20:25:15.062Z,26.60
2023-09-22T20:27:42.830Z,26.60
2023-09-22T20:30:12.785Z,26.60
2023-09-22T20:32:40.834Z,26.60
2023-09-22T20:35:10.180Z,26.60
2023-09-22T20:37:38.297Z,26.50
2023-09-22T20:40:07.820Z,26.60
2023-09-22T20:42:37.068Z,26.60
2023-09-22T20:45:12.604Z,26.60
2023-09-22T20:47:40.478Z,26.60
2023-09-22T20:50:14.332Z,26.50
2023-09-22T20:52:42.995Z,26.60
2023-09-22T20:55:12.362Z,26.60
2023-09-22T20:57:41.469Z,26.50
2023-09-22T21:00:12.969Z,26.50
2023-09-22T21:02:40.873Z,26.50
2023-09-22T21:05:10.953Z,26.50
2023-09-22T21:07:38.922Z,26.50
2023-09-22T21:10:09.065Z,26.50
2023-09-22T21:12:36.850Z,26.50
2023-09-22T21:15:06.803Z,26.50
2023-09-22T21:17:34.635Z,26.50
2023-09-22T21:20:02.559Z,26.50
2023-09-22T21:22:30.504Z,26.50
2023-09-22T21:24:58.690Z,26.50
2023-09-22T21:27:26.633Z,26.50
2023-09-22T21:29:54.395Z,26.50
2023-09-22T21:32:23.559Z,26.50
2023-09-22T21:34:51.455Z,26.50
2023-09-22T21:37:19.293Z,26.50
2023-09-22T21:39:47.180Z,26.50
2023-09-22T21:42:14.954Z,26.50
2023-09-22T21:44:44.891Z,26.50
2023-09-22T21:47:12.715Z,26.50
2023-09-22T21:49:42.724Z,26.50
2023-09-22T21:52:10.862Z,26.50
2023-09-22T21:54:38.861Z,26.50
2023-09-22T21:57:08.446Z,26.50
2023-09-22T21:59:36.349Z,26.50
2023-09-22T22:02:04.263Z,26.50
2023-09-22T22:04:33.697Z,26.50
2023-09-22T22:07:02.934Z,26.50
2023-09-22T22:09:30.949Z,26.50
2023-09-22T22:11:58.958Z,26.50
2023-09-22T22:14:26.761Z,26.50
2023-09-22T22:16:55.397Z,26.50
2023-09-22T22:19:24.034Z,26.50
2023-09-22T22:21:52.172Z,26.50
2023-09-22T22:24:22.768Z,26.50
2023-09-22T22:26:53.110Z,26.50
2023-09-22T22:29:21.166Z,26.50
2023-09-22T22:31:49.522Z,26.50
2023-09-22T22:34:19.864Z,26.50
2023-09-22T22:36:48.998Z,26.40
2023-09-22T22:39:19.809Z,26.50
2023-09-22T22:41:49.384Z,26.50
2023-09-22T22:44:17.411Z,26.50
2023-09-22T22:46:46.080Z,26.50
2023-09-22T22:49:14.008Z,26.50
2023-09-22T22:51:42.370Z,26.50
2023-09-22T22:54:10.139Z,26.50
2023-09-22T22:56:38.075Z,26.50
2023-09-22T22:59:07.185Z,26.50
2023-09-22T23:01:35.736Z,26.50
2023-09-22T23:04:06.932Z,26.50
2023-09-22T23:06:35.343Z,26.40
2023-09-22T23:09:05.742Z,26.50
2023-09-22T23:11:33.510Z,26.40
2023-09-22T23:14:02.072Z,26.50
2023-09-22T23:16:33.961Z,26.40
2023-09-22T23:19:02.133Z,26.40
2023-09-22T23:21:33.169Z,26.40
2023-09-22T23:24:05.452Z,26.40
2023-09-22T23:26:33.311Z,26.40
2023-09-22T23:29:02.236Z,26.40
2023-09-22T23:31:31.681Z,26.40
2023-09-22T23:33:59.655Z,26.40
2023-09-22T23:36:28.752Z,26.40
2023-09-22T23:38:56.591Z,26.40
2023-09-22T23:41:24.455Z,26.40
2023-09-22T23:43:52.265Z,26.40
2023-09-22T23:46:20.739Z,26.40
2023-09-22T23:48:49.988Z,26.40
2023-09-22T23:51:17.780Z,26.40
2023-09-22T23:53:46.312Z,26.40
2023-09-22T23:56:14.160Z,26.40
2023-09-22T23:58:43.139Z,26.40
